sensor_id;sensor_type;location;lat;lon;timestamp;P1;durP1;ratioP1;P2;durP2;ratioP2
36247;SDS011;22287;50.824;5.644;2022-11-20T00:01:19;21.92;;;12.55;;
36247;SDS011;22287;50.824;5.644;2022-11-20T00:03:50;22.60;;;12.80;;
36247;SDS011;22287;50.824;5.644;2022-11-20T00:06:18;23.23;;;12.18;;
36247;SDS011;22287;50.824;5.644;2022-11-20T00:08:46;22.20;;;11.95;;
36247;SDS011;22287;50.824;5.644;2022-11-20T00:11:21;27.50;;;13.05;;
36247;SDS011;22287;50.824;5.644;2022-11-20T00:13:50;21.10;;;12.00;;
36247;SDS011;22287;50.824;5.644;2022-11-20T00:16:19;24.45;;;13.23;;
36247;SDS011;22287;50.824;5.644;2022-11-20T00:18:48;20.98;;;12.32;;
36247;SDS011;22287;50.824;5.644;2022-11-20T00:21:19;19.65;;;10.95;;
36247;SDS011;22287;50.824;5.644;2022-11-20T00:23:49;21.20;;;11.45;;
36247;SDS011;22287;50.824;5.644;2022-11-20T00:26:20;19.45;;;11.30;;
36247;SDS011;22287;50.824;5.644;2022-11-20T00:28:54;20.38;;;11.23;;
36247;SDS011;22287;50.824;5.644;2022-11-20T00:31:22;20.10;;;11.65;;
36247;SDS011;22287;50.824;5.644;2022-11-20T00:33:50;21.10;;;12.50;;
36247;SDS011;22287;50.824;5.644;2022-11-20T00:36:18;21.85;;;12.25;;
36247;SDS011;22287;50.824;5.644;2022-11-20T00:38:46;20.17;;;10.98;;
36247;SDS011;22287;50.824;5.644;2022-11-20T00:41:14;21.95;;;11.35;;
36247;SDS011;22287;50.824;5.644;2022-11-20T00:43:42;21.45;;;11.75;;
36247;SDS011;22287;50.824;5.644;2022-11-20T00:46:10;22.50;;;11.60;;
36247;SDS011;22287;50.824;5.644;2022-11-20T00:48:40;22.85;;;12.13;;
36247;SDS011;22287;50.824;5.644;2022-11-20T00:51:07;22.80;;;12.52;;
36247;SDS011;22287;50.824;5.644;2022-11-20T00:53:34;20.50;;;11.65;;
36247;SDS011;22287;50.824;5.644;2022-11-20T00:56:02;22.63;;;12.95;;
36247;SDS011;22287;50.824;5.644;2022-11-20T00:58:31;21.20;;;11.70;;
36247;SDS011;22287;50.824;5.644;2022-11-20T01:01:00;23.33;;;12.75;;
36247;SDS011;22287;50.824;5.644;2022-11-20T01:03:32;23.23;;;12.15;;
36247;SDS011;22287;50.824;5.644;2022-11-20T01:06:04;22.98;;;12.38;;
36247;SDS011;22287;50.824;5.644;2022-11-20T01:08:33;21.33;;;10.57;;
36247;SDS011;22287;50.824;5.644;2022-11-20T01:11:04;21.87;;;11.47;;
36247;SDS011;22287;50.824;5.644;2022-11-20T01:13:32;23.80;;;12.50;;
36247;SDS011;22287;50.824;5.644;2022-11-20T01:16:10;21.00;;;11.55;;
36247;SDS011;22287;50.824;5.644;2022-11-20T01:18:42;23.30;;;12.43;;
36247;SDS011;22287;50.824;5.644;2022-11-20T01:21:11;19.45;;;11.15;;
36247;SDS011;22287;50.824;5.644;2022-11-20T01:23:40;18.83;;;11.10;;
36247;SDS011;22287;50.824;5.644;2022-11-20T01:26:09;21.48;;;12.73;;
36247;SDS011;22287;50.824;5.644;2022-11-20T01:28:38;23.95;;;12.73;;
36247;SDS011;22287;50.824;5.644;2022-11-20T01:31:17;26.90;;;12.40;;
36247;SDS011;22287;50.824;5.644;2022-11-20T01:33:45;22.20;;;12.25;;
36247;SDS011;22287;50.824;5.644;2022-11-20T01:36:13;22.30;;;12.32;;
36247;SDS011;22287;50.824;5.644;2022-11-20T01:38:42;23.88;;;13.23;;
36247;SDS011;22287;50.824;5.644;2022-11-20T01:41:09;21.27;;;11.48;;
36247;SDS011;22287;50.824;5.644;2022-11-20T01:43:58;20.63;;;11.00;;
36247;SDS011;22287;50.824;5.644;2022-11-20T01:46:26;25.20;;;12.60;;
36247;SDS011;22287;50.824;5.644;2022-11-20T01:51:56;21.33;;;12.18;;
36247;SDS011;22287;50.824;5.644;2022-11-20T01:56:57;20.00;;;11.23;;
36247;SDS011;22287;50.824;5.644;2022-11-20T01:59:27;22.20;;;10.93;;
36247;SDS011;22287;50.824;5.644;2022-11-20T02:01:56;25.00;;;12.10;;
36247;SDS011;22287;50.824;5.644;2022-11-20T02:04:23;20.65;;;11.40;;
36247;SDS011;22287;50.824;5.644;2022-11-20T02:06:53;21.02;;;12.02;;
36247;SDS011;22287;50.824;5.644;2022-11-20T02:09:25;23.70;;;12.70;;
36247;SDS011;22287;50.824;5.644;2022-11-20T02:11:53;23.45;;;13.00;;
36247;SDS011;22287;50.824;5.644;2022-11-20T02:14:21;23.25;;;12.65;;
36247;SDS011;22287;50.824;5.644;2022-11-20T02:16:48;22.77;;;12.07;;
36247;SDS011;22287;50.824;5.644;2022-11-20T02:19:49;21.60;;;11.55;;
36247;SDS011;22287;50.824;5.644;2022-11-20T02:22:21;20.23;;;11.50;;
36247;SDS011;22287;50.824;5.644;2022-11-20T02:24:51;21.48;;;11.63;;
36247;SDS011;22287;50.824;5.644;2022-11-20T02:27:18;21.95;;;12.68;;
36247;SDS011;22287;50.824;5.644;2022-11-20T02:29:52;22.63;;;12.55;;
36247;SDS011;22287;50.824;5.644;2022-11-20T02:32:23;23.13;;;12.63;;
36247;SDS011;22287;50.824;5.644;2022-11-20T02:34:52;22.77;;;12.27;;
36247;SDS011;22287;50.824;5.644;2022-11-20T02:37:19;22.83;;;13.70;;
36247;SDS011;22287;50.824;5.644;2022-11-20T02:39:47;22.50;;;12.45;;
36247;SDS011;22287;50.824;5.644;2022-11-20T02:42:16;24.00;;;13.15;;
36247;SDS011;22287;50.824;5.644;2022-11-20T02:44:43;25.80;;;12.43;;
36247;SDS011;22287;50.824;5.644;2022-11-20T02:47:10;21.52;;;12.10;;
36247;SDS011;22287;50.824;5.644;2022-11-20T02:49:37;23.45;;;13.45;;
36247;SDS011;22287;50.824;5.644;2022-11-20T02:52:04;25.33;;;12.88;;
36247;SDS011;22287;50.824;5.644;2022-11-20T02:54:31;24.60;;;13.52;;
36247;SDS011;22287;50.824;5.644;2022-11-20T02:56:58;22.50;;;13.35;;
36247;SDS011;22287;50.824;5.644;2022-11-20T02:59:25;22.63;;;12.75;;
36247;SDS011;22287;50.824;5.644;2022-11-20T03:01:51;23.50;;;12.73;;
36247;SDS011;22287;50.824;5.644;2022-11-20T03:04:18;22.83;;;13.32;;
36247;SDS011;22287;50.824;5.644;2022-11-20T03:06:45;25.05;;;13.38;;
36247;SDS011;22287;50.824;5.644;2022-11-20T03:09:12;25.73;;;13.30;;
36247;SDS011;22287;50.824;5.644;2022-11-20T03:11:39;21.63;;;12.85;;
36247;SDS011;22287;50.824;5.644;2022-11-20T03:14:06;23.85;;;12.98;;
36247;SDS011;22287;50.824;5.644;2022-11-20T03:16:33;22.40;;;12.82;;
36247;SDS011;22287;50.824;5.644;2022-11-20T03:19:00;24.38;;;13.23;;
36247;SDS011;22287;50.824;5.644;2022-11-20T03:21:27;25.08;;;13.23;;
36247;SDS011;22287;50.824;5.644;2022-11-20T03:23:54;25.73;;;13.38;;
36247;SDS011;22287;50.824;5.644;2022-11-20T03:26:21;22.38;;;12.95;;
36247;SDS011;22287;50.824;5.644;2022-11-20T03:28:51;22.38;;;12.70;;
36247;SDS011;22287;50.824;5.644;2022-11-20T03:31:20;22.98;;;12.25;;
36247;SDS011;22287;50.824;5.644;2022-11-20T03:33:49;24.83;;;13.18;;
36247;SDS011;22287;50.824;5.644;2022-11-20T03:36:17;23.70;;;14.20;;
36247;SDS011;22287;50.824;5.644;2022-11-20T03:38:45;24.60;;;11.52;;
36247;SDS011;22287;50.824;5.644;2022-11-20T03:41:16;27.27;;;14.45;;
36247;SDS011;22287;50.824;5.644;2022-11-20T03:43:52;25.25;;;13.90;;
36247;SDS011;22287;50.824;5.644;2022-11-20T03:46:24;26.77;;;13.75;;
36247;SDS011;22287;50.824;5.644;2022-11-20T03:48:52;24.60;;;13.65;;
36247;SDS011;22287;50.824;5.644;2022-11-20T03:51:20;24.13;;;13.30;;
36247;SDS011;22287;50.824;5.644;2022-11-20T03:53:49;23.17;;;12.75;;
36247;SDS011;22287;50.824;5.644;2022-11-20T03:56:18;24.52;;;13.25;;
36247;SDS011;22287;50.824;5.644;2022-11-20T03:58:46;22.42;;;13.23;;
36247;SDS011;22287;50.824;5.644;2022-11-20T04:01:14;23.67;;;12.75;;
36247;SDS011;22287;50.824;5.644;2022-11-20T04:03:46;26.45;;;13.90;;
36247;SDS011;22287;50.824;5.644;2022-11-20T04:06:15;27.65;;;13.10;;
36247;SDS011;22287;50.824;5.644;2022-11-20T04:08:43;27.63;;;13.97;;
36247;SDS011;22287;50.824;5.644;2022-11-20T04:11:16;24.90;;;13.15;;
36247;SDS011;22287;50.824;5.644;2022-11-20T04:13:50;26.25;;;13.43;;
36247;SDS011;22287;50.824;5.644;2022-11-20T04:16:19;28.08;;;14.00;;
36247;SDS011;22287;50.824;5.644;2022-11-20T04:18:50;33.15;;;15.32;;
36247;SDS011;22287;50.824;5.644;2022-11-20T04:21:19;29.98;;;15.15;;
36247;SDS011;22287;50.824;5.644;2022-11-20T04:23:46;28.98;;;15.25;;
36247;SDS011;22287;50.824;5.644;2022-11-20T04:26:13;31.45;;;15.57;;
36247;SDS011;22287;50.824;5.644;2022-11-20T04:28:39;31.65;;;15.60;;
36247;SDS011;22287;50.824;5.644;2022-11-20T04:31:13;30.17;;;16.40;;
36247;SDS011;22287;50.824;5.644;2022-11-20T04:33:43;31.02;;;14.68;;
36247;SDS011;22287;50.824;5.644;2022-11-20T04:36:11;32.78;;;14.70;;
36247;SDS011;22287;50.824;5.644;2022-11-20T04:38:40;35.38;;;16.35;;
36247;SDS011;22287;50.824;5.644;2022-11-20T04:41:08;31.25;;;16.27;;
36247;SDS011;22287;50.824;5.644;2022-11-20T04:43:41;28.65;;;15.60;;
36247;SDS011;22287;50.824;5.644;2022-11-20T04:46:07;34.65;;;15.77;;
36247;SDS011;22287;50.824;5.644;2022-11-20T04:48:34;31.00;;;15.07;;
36247;SDS011;22287;50.824;5.644;2022-11-20T04:51:04;33.97;;;16.77;;
36247;SDS011;22287;50.824;5.644;2022-11-20T04:53:31;29.75;;;15.65;;
36247;SDS011;22287;50.824;5.644;2022-11-20T04:56:02;33.17;;;16.73;;
36247;SDS011;22287;50.824;5.644;2022-11-20T04:58:30;32.47;;;15.45;;
36247;SDS011;22287;50.824;5.644;2022-11-20T05:01:04;35.20;;;16.65;;
36247;SDS011;22287;50.824;5.644;2022-11-20T05:03:39;37.03;;;16.42;;
36247;SDS011;22287;50.824;5.644;2022-11-20T05:06:08;33.30;;;16.65;;
36247;SDS011;22287;50.824;5.644;2022-11-20T05:08:37;35.00;;;17.13;;
36247;SDS011;22287;50.824;5.644;2022-11-20T05:11:07;31.83;;;16.80;;
36247;SDS011;22287;50.824;5.644;2022-11-20T05:13:36;32.33;;;15.43;;
36247;SDS011;22287;50.824;5.644;2022-11-20T05:18:31;34.17;;;15.68;;
36247;SDS011;22287;50.824;5.644;2022-11-20T05:21:00;30.50;;;15.27;;
36247;SDS011;22287;50.824;5.644;2022-11-20T05:23:27;36.25;;;17.80;;
36247;SDS011;22287;50.824;5.644;2022-11-20T05:25:55;30.67;;;16.13;;
36247;SDS011;22287;50.824;5.644;2022-11-20T05:28:25;30.00;;;15.65;;
36247;SDS011;22287;50.824;5.644;2022-11-20T05:30:54;33.50;;;15.75;;
36247;SDS011;22287;50.824;5.644;2022-11-20T05:33:21;32.08;;;16.50;;
36247;SDS011;22287;50.824;5.644;2022-11-20T05:35:48;33.85;;;16.42;;
36247;SDS011;22287;50.824;5.644;2022-11-20T05:38:15;31.98;;;15.95;;
36247;SDS011;22287;50.824;5.644;2022-11-20T05:40:42;29.85;;;13.93;;
36247;SDS011;22287;50.824;5.644;2022-11-20T05:43:08;35.47;;;15.23;;
36247;SDS011;22287;50.824;5.644;2022-11-20T05:45:35;31.23;;;15.63;;
36247;SDS011;22287;50.824;5.644;2022-11-20T05:48:02;29.23;;;15.65;;
36247;SDS011;22287;50.824;5.644;2022-11-20T05:50:29;28.83;;;15.35;;
36247;SDS011;22287;50.824;5.644;2022-11-20T05:52:59;28.65;;;14.77;;
36247;SDS011;22287;50.824;5.644;2022-11-20T05:55:27;35.75;;;15.10;;
36247;SDS011;22287;50.824;5.644;2022-11-20T05:57:54;35.10;;;16.63;;
36247;SDS011;22287;50.824;5.644;2022-11-20T06:00:21;31.70;;;15.65;;
36247;SDS011;22287;50.824;5.644;2022-11-20T06:02:48;31.05;;;15.50;;
36247;SDS011;22287;50.824;5.644;2022-11-20T06:05:15;32.80;;;15.20;;
36247;SDS011;22287;50.824;5.644;2022-11-20T06:07:42;33.17;;;15.95;;
36247;SDS011;22287;50.824;5.644;2022-11-20T06:10:09;30.50;;;15.73;;
36247;SDS011;22287;50.824;5.644;2022-11-20T06:12:36;36.90;;;15.25;;
36247;SDS011;22287;50.824;5.644;2022-11-20T06:15:04;33.38;;;14.85;;
36247;SDS011;22287;50.824;5.644;2022-11-20T06:17:32;30.30;;;15.38;;
36247;SDS011;22287;50.824;5.644;2022-11-20T06:19:58;32.45;;;14.60;;
36247;SDS011;22287;50.824;5.644;2022-11-20T06:22:25;34.00;;;16.27;;
36247;SDS011;22287;50.824;5.644;2022-11-20T06:24:52;33.63;;;15.50;;
36247;SDS011;22287;50.824;5.644;2022-11-20T06:27:19;31.88;;;15.23;;
36247;SDS011;22287;50.824;5.644;2022-11-20T06:29:45;37.63;;;15.35;;
36247;SDS011;22287;50.824;5.644;2022-11-20T06:32:13;34.47;;;16.67;;
36247;SDS011;22287;50.824;5.644;2022-11-20T06:34:40;34.10;;;14.95;;
36247;SDS011;22287;50.824;5.644;2022-11-20T06:37:06;43.70;;;21.48;;
36247;SDS011;22287;50.824;5.644;2022-11-20T06:39:33;42.40;;;19.67;;
36247;SDS011;22287;50.824;5.644;2022-11-20T06:42:00;38.03;;;18.48;;
36247;SDS011;22287;50.824;5.644;2022-11-20T06:44:26;34.55;;;16.05;;
36247;SDS011;22287;50.824;5.644;2022-11-20T06:46:53;35.65;;;17.63;;
36247;SDS011;22287;50.824;5.644;2022-11-20T06:49:20;35.22;;;16.13;;
36247;SDS011;22287;50.824;5.644;2022-11-20T06:51:47;38.28;;;17.40;;
36247;SDS011;22287;50.824;5.644;2022-11-20T06:54:14;32.67;;;17.02;;
36247;SDS011;22287;50.824;5.644;2022-11-20T06:56:40;31.70;;;14.93;;
36247;SDS011;22287;50.824;5.644;2022-11-20T06:59:07;35.22;;;15.98;;
36247;SDS011;22287;50.824;5.644;2022-11-20T07:01:34;32.55;;;15.63;;
36247;SDS011;22287;50.824;5.644;2022-11-20T07:04:01;34.13;;;15.60;;
36247;SDS011;22287;50.824;5.644;2022-11-20T07:06:29;31.15;;;15.63;;
36247;SDS011;22287;50.824;5.644;2022-11-20T07:08:56;44.28;;;20.38;;
36247;SDS011;22287;50.824;5.644;2022-11-20T07:11:23;31.65;;;16.38;;
36247;SDS011;22287;50.824;5.644;2022-11-20T07:13:50;33.92;;;14.70;;
36247;SDS011;22287;50.824;5.644;2022-11-20T07:16:17;31.33;;;15.27;;
36247;SDS011;22287;50.824;5.644;2022-11-20T07:18:43;31.25;;;15.07;;
36247;SDS011;22287;50.824;5.644;2022-11-20T07:21:15;31.02;;;15.18;;
36247;SDS011;22287;50.824;5.644;2022-11-20T07:23:42;31.50;;;15.25;;
36247;SDS011;22287;50.824;5.644;2022-11-20T07:26:09;32.55;;;14.85;;
36247;SDS011;22287;50.824;5.644;2022-11-20T07:28:37;32.55;;;15.23;;
36247;SDS011;22287;50.824;5.644;2022-11-20T07:31:04;34.70;;;16.02;;
36247;SDS011;22287;50.824;5.644;2022-11-20T07:33:33;34.00;;;15.50;;
36247;SDS011;22287;50.824;5.644;2022-11-20T07:36:00;33.90;;;15.48;;
36247;SDS011;22287;50.824;5.644;2022-11-20T07:38:27;30.13;;;14.68;;
36247;SDS011;22287;50.824;5.644;2022-11-20T07:40:55;31.17;;;15.40;;
36247;SDS011;22287;50.824;5.644;2022-11-20T07:43:24;31.70;;;15.23;;
36247;SDS011;22287;50.824;5.644;2022-11-20T07:45:51;29.95;;;15.95;;
36247;SDS011;22287;50.824;5.644;2022-11-20T07:48:18;29.70;;;15.80;;
36247;SDS011;22287;50.824;5.644;2022-11-20T07:50:45;33.38;;;15.38;;
36247;SDS011;22287;50.824;5.644;2022-11-20T07:53:12;33.92;;;14.85;;
36247;SDS011;22287;50.824;5.644;2022-11-20T07:55:40;41.90;;;15.68;;
36247;SDS011;22287;50.824;5.644;2022-11-20T07:58:06;30.38;;;14.25;;
36247;SDS011;22287;50.824;5.644;2022-11-20T08:00:33;32.58;;;14.45;;
36247;SDS011;22287;50.824;5.644;2022-11-20T08:03:02;29.58;;;14.95;;
36247;SDS011;22287;50.824;5.644;2022-11-20T08:05:30;32.00;;;15.33;;
36247;SDS011;22287;50.824;5.644;2022-11-20T08:07:57;30.48;;;15.65;;
36247;SDS011;22287;50.824;5.644;2022-11-20T08:10:24;32.33;;;14.40;;
36247;SDS011;22287;50.824;5.644;2022-11-20T08:12:52;33.67;;;14.73;;
36247;SDS011;22287;50.824;5.644;2022-11-20T08:15:38;29.75;;;14.30;;
36247;SDS011;22287;50.824;5.644;2022-11-20T08:18:07;32.92;;;14.88;;
36247;SDS011;22287;50.824;5.644;2022-11-20T08:20:58;28.25;;;13.15;;
36247;SDS011;22287;50.824;5.644;2022-11-20T08:23:28;32.30;;;14.80;;
36247;SDS011;22287;50.824;5.644;2022-11-20T08:25:55;28.52;;;14.45;;
36247;SDS011;22287;50.824;5.644;2022-11-20T08:28:22;31.65;;;14.73;;
36247;SDS011;22287;50.824;5.644;2022-11-20T08:30:49;33.00;;;14.98;;
36247;SDS011;22287;50.824;5.644;2022-11-20T08:33:16;26.70;;;12.98;;
36247;SDS011;22287;50.824;5.644;2022-11-20T08:35:44;33.17;;;15.20;;
36247;SDS011;22287;50.824;5.644;2022-11-20T08:38:11;32.58;;;15.07;;
36247;SDS011;22287;50.824;5.644;2022-11-20T08:40:37;32.17;;;15.20;;
36247;SDS011;22287;50.824;5.644;2022-11-20T08:43:04;29.25;;;14.65;;
36247;SDS011;22287;50.824;5.644;2022-11-20T08:45:31;30.50;;;14.32;;
36247;SDS011;22287;50.824;5.644;2022-11-20T08:48:00;30.75;;;14.40;;
36247;SDS011;22287;50.824;5.644;2022-11-20T08:50:28;29.65;;;14.23;;
36247;SDS011;22287;50.824;5.644;2022-11-20T08:53:04;29.48;;;14.77;;
36247;SDS011;22287;50.824;5.644;2022-11-20T08:55:31;30.27;;;13.82;;
36247;SDS011;22287;50.824;5.644;2022-11-20T08:58:02;32.60;;;14.32;;
36247;SDS011;22287;50.824;5.644;2022-11-20T09:00:30;30.52;;;13.60;;
36247;SDS011;22287;50.824;5.644;2022-11-20T09:02:57;30.52;;;14.63;;
36247;SDS011;22287;50.824;5.644;2022-11-20T09:05:24;31.38;;;14.20;;
36247;SDS011;22287;50.824;5.644;2022-11-20T09:07:51;30.88;;;14.27;;
36247;SDS011;22287;50.824;5.644;2022-11-20T09:10:18;34.22;;;14.52;;
36247;SDS011;22287;50.824;5.644;2022-11-20T09:12:50;34.05;;;14.80;;
36247;SDS011;22287;50.824;5.644;2022-11-20T09:15:18;34.05;;;13.98;;
36247;SDS011;22287;50.824;5.644;2022-11-20T09:17:51;34.90;;;14.13;;
36247;SDS011;22287;50.824;5.644;2022-11-20T09:20:25;32.92;;;14.70;;
36247;SDS011;22287;50.824;5.644;2022-11-20T09:22:52;29.30;;;13.23;;
36247;SDS011;22287;50.824;5.644;2022-11-20T09:25:19;40.28;;;15.10;;
36247;SDS011;22287;50.824;5.644;2022-11-20T09:27:46;32.13;;;14.27;;
36247;SDS011;22287;50.824;5.644;2022-11-20T09:30:13;32.47;;;14.20;;
36247;SDS011;22287;50.824;5.644;2022-11-20T09:32:41;34.60;;;15.27;;
36247;SDS011;22287;50.824;5.644;2022-11-20T09:35:09;36.17;;;15.30;;
36247;SDS011;22287;50.824;5.644;2022-11-20T09:37:37;34.15;;;15.15;;
36247;SDS011;22287;50.824;5.644;2022-11-20T09:40:03;36.72;;;15.57;;
36247;SDS011;22287;50.824;5.644;2022-11-20T09:56:12;36.55;;;15.10;;
36247;SDS011;22287;50.824;5.644;2022-11-20T09:58:50;33.63;;;15.82;;
36247;SDS011;22287;50.824;5.644;2022-11-20T10:01:21;34.58;;;15.48;;
36247;SDS011;22287;50.824;5.644;2022-11-20T10:06:30;36.03;;;15.95;;
36247;SDS011;22287;50.824;5.644;2022-11-20T10:11:42;34.80;;;15.35;;
36247;SDS011;22287;50.824;5.644;2022-11-20T10:26:03;35.92;;;13.70;;
36247;SDS011;22287;50.824;5.644;2022-11-20T10:31:56;39.55;;;14.77;;
36247;SDS011;22287;50.824;5.644;2022-11-20T10:34:38;37.63;;;16.15;;
36247;SDS011;22287;50.824;5.644;2022-11-20T10:37:22;39.90;;;16.77;;
36247;SDS011;22287;50.824;5.644;2022-11-20T10:40:02;36.58;;;14.63;;
36247;SDS011;22287;50.824;5.644;2022-11-20T10:42:36;36.83;;;15.50;;
36247;SDS011;22287;50.824;5.644;2022-11-20T10:48:07;36.90;;;15.32;;
36247;SDS011;22287;50.824;5.644;2022-11-20T10:50:40;38.10;;;15.82;;
36247;SDS011;22287;50.824;5.644;2022-11-20T10:59:03;32.00;;;14.98;;
36247;SDS011;22287;50.824;5.644;2022-11-20T11:01:44;33.85;;;14.25;;
36247;SDS011;22287;50.824;5.644;2022-11-20T11:07:26;32.40;;;15.00;;
36247;SDS011;22287;50.824;5.644;2022-11-20T11:09:57;30.10;;;14.48;;
36247;SDS011;22287;50.824;5.644;2022-11-20T11:12:24;31.00;;;13.98;;
36247;SDS011;22287;50.824;5.644;2022-11-20T11:14:56;29.60;;;14.07;;
36247;SDS011;22287;50.824;5.644;2022-11-20T11:20:03;31.92;;;12.90;;
36247;SDS011;22287;50.824;5.644;2022-11-20T11:22:44;29.35;;;13.70;;
36247;SDS011;22287;50.824;5.644;2022-11-20T11:25:18;35.15;;;14.73;;
36247;SDS011;22287;50.824;5.644;2022-11-20T11:27:59;30.00;;;13.45;;
36247;SDS011;22287;50.824;5.644;2022-11-20T11:30:28;28.63;;;14.20;;
36247;SDS011;22287;50.824;5.644;2022-11-20T11:33:04;30.42;;;13.98;;
36247;SDS011;22287;50.824;5.644;2022-11-20T11:35:48;28.50;;;14.52;;
36247;SDS011;22287;50.824;5.644;2022-11-20T11:38:21;27.60;;;12.93;;
36247;SDS011;22287;50.824;5.644;2022-11-20T11:40:54;27.38;;;13.35;;
36247;SDS011;22287;50.824;5.644;2022-11-20T11:43:24;29.17;;;12.98;;
36247;SDS011;22287;50.824;5.644;2022-11-20T11:54:36;26.73;;;12.40;;
36247;SDS011;22287;50.824;5.644;2022-11-20T12:00:06;26.40;;;12.50;;
36247;SDS011;22287;50.824;5.644;2022-11-20T12:10:45;18.65;;;8.68;;
36247;SDS011;22287;50.824;5.644;2022-11-20T12:16:24;12.55;;;6.60;;
36247;SDS011;22287;50.824;5.644;2022-11-20T12:18:52;11.85;;;6.22;;
36247;SDS011;22287;50.824;5.644;2022-11-20T12:29:47;16.98;;;5.78;;
36247;SDS011;22287;50.824;5.644;2022-11-20T12:51:47;6.22;;;2.35;;
36247;SDS011;22287;50.824;5.644;2022-11-20T12:54:30;5.32;;;2.25;;
36247;SDS011;22287;50.824;5.644;2022-11-20T12:57:35;5.10;;;2.58;;
36247;SDS011;22287;50.824;5.644;2022-11-20T13:00:19;6.38;;;2.85;;
36247;SDS011;22287;50.824;5.644;2022-11-20T13:05:55;5.05;;;2.05;;
36247;SDS011;22287;50.824;5.644;2022-11-20T13:08:39;4.10;;;1.85;;
36247;SDS011;22287;50.824;5.644;2022-11-20T13:14:00;4.25;;;1.92;;
36247;SDS011;22287;50.824;5.644;2022-11-20T13:19:53;5.15;;;1.80;;
36247;SDS011;22287;50.824;5.644;2022-11-20T13:22:26;6.63;;;1.70;;
36247;SDS011;22287;50.824;5.644;2022-11-20T13:24:55;4.30;;;1.63;;
36247;SDS011;22287;50.824;5.644;2022-11-20T13:27:22;8.27;;;2.35;;
36247;SDS011;22287;50.824;5.644;2022-11-20T13:30:00;2.85;;;1.35;;
36247;SDS011;22287;50.824;5.644;2022-11-20T13:32:51;2.90;;;1.88;;
36247;SDS011;22287;50.824;5.644;2022-11-20T13:35:32;2.65;;;1.17;;
36247;SDS011;22287;50.824;5.644;2022-11-20T13:40:28;4.57;;;1.10;;
36247;SDS011;22287;50.824;5.644;2022-11-20T13:45:37;6.00;;;1.20;;
36247;SDS011;22287;50.824;5.644;2022-11-20T13:48:04;1.55;;;0.70;;
36247;SDS011;22287;50.824;5.644;2022-11-20T13:51:02;3.97;;;1.00;;
36247;SDS011;22287;50.824;5.644;2022-11-20T13:53:46;2.40;;;0.85;;
36247;SDS011;22287;50.824;5.644;2022-11-20T13:56:24;1.55;;;0.88;;
36247;SDS011;22287;50.824;5.644;2022-11-20T14:01:58;3.92;;;1.02;;
36247;SDS011;22287;50.824;5.644;2022-11-20T14:04:29;2.63;;;0.70;;
36247;SDS011;22287;50.824;5.644;2022-11-20T14:06:59;3.33;;;1.05;;
36247;SDS011;22287;50.824;5.644;2022-11-20T14:09:27;4.20;;;1.20;;
36247;SDS011;22287;50.824;5.644;2022-11-20T14:11:58;2.83;;;1.00;;
36247;SDS011;22287;50.824;5.644;2022-11-20T14:14:26;4.07;;;1.13;;
36247;SDS011;22287;50.824;5.644;2022-11-20T14:19:42;4.80;;;1.20;;
36247;SDS011;22287;50.824;5.644;2022-11-20T14:24:49;3.80;;;1.50;;
36247;SDS011;22287;50.824;5.644;2022-11-20T14:27:35;3.47;;;1.50;;
36247;SDS011;22287;50.824;5.644;2022-11-20T14:30:03;3.78;;;1.70;;
36247;SDS011;22287;50.824;5.644;2022-11-20T14:32:31;3.75;;;1.83;;
36247;SDS011;22287;50.824;5.644;2022-11-20T14:35:02;4.40;;;1.80;;
36247;SDS011;22287;50.824;5.644;2022-11-20T14:37:38;3.65;;;2.05;;
36247;SDS011;22287;50.824;5.644;2022-11-20T14:40:22;4.90;;;1.88;;
36247;SDS011;22287;50.824;5.644;2022-11-20T14:42:50;4.97;;;1.92;;
36247;SDS011;22287;50.824;5.644;2022-11-20T14:45:16;4.30;;;2.20;;
36247;SDS011;22287;50.824;5.644;2022-11-20T14:47:44;3.55;;;2.25;;
36247;SDS011;22287;50.824;5.644;2022-11-20T14:52:50;8.73;;;1.98;;
36247;SDS011;22287;50.824;5.644;2022-11-20T14:55:26;4.90;;;1.95;;
36247;SDS011;22287;50.824;5.644;2022-11-20T14:58:00;5.15;;;2.40;;
36247;SDS011;22287;50.824;5.644;2022-11-20T15:00:33;4.25;;;2.47;;
36247;SDS011;22287;50.824;5.644;2022-11-20T15:03:01;6.22;;;2.80;;
36247;SDS011;22287;50.824;5.644;2022-11-20T15:08:26;5.90;;;3.22;;
36247;SDS011;22287;50.824;5.644;2022-11-20T15:10:53;7.03;;;3.15;;
36247;SDS011;22287;50.824;5.644;2022-11-20T15:16:15;4.60;;;2.45;;
36247;SDS011;22287;50.824;5.644;2022-11-20T15:18:47;4.43;;;2.28;;
36247;SDS011;22287;50.824;5.644;2022-11-20T15:21:15;4.63;;;2.72;;
36247;SDS011;22287;50.824;5.644;2022-11-20T15:23:43;3.75;;;2.50;;
36247;SDS011;22287;50.824;5.644;2022-11-20T15:26:11;5.10;;;3.60;;
36247;SDS011;22287;50.824;5.644;2022-11-20T15:28:45;6.00;;;3.03;;
36247;SDS011;22287;50.824;5.644;2022-11-20T15:31:21;3.17;;;2.72;;
36247;SDS011;22287;50.824;5.644;2022-11-20T15:33:49;5.10;;;2.58;;
36247;SDS011;22287;50.824;5.644;2022-11-20T15:36:16;4.00;;;2.25;;
36247;SDS011;22287;50.824;5.644;2022-11-20T15:38:43;6.80;;;2.60;;
36247;SDS011;22287;50.824;5.644;2022-11-20T15:41:10;4.53;;;2.30;;
36247;SDS011;22287;50.824;5.644;2022-11-20T15:43:37;2.13;;;1.90;;
36247;SDS011;22287;50.824;5.644;2022-11-20T15:46:06;3.95;;;2.42;;
36247;SDS011;22287;50.824;5.644;2022-11-20T15:48:40;4.60;;;2.53;;
36247;SDS011;22287;50.824;5.644;2022-11-20T15:54:09;3.45;;;1.77;;
36247;SDS011;22287;50.824;5.644;2022-11-20T15:56:38;4.57;;;1.92;;
36247;SDS011;22287;50.824;5.644;2022-11-20T15:59:05;2.85;;;1.60;;
36247;SDS011;22287;50.824;5.644;2022-11-20T16:01:32;2.38;;;1.55;;
36247;SDS011;22287;50.824;5.644;2022-11-20T16:03:59;3.20;;;1.55;;
36247;SDS011;22287;50.824;5.644;2022-11-20T16:06:26;3.13;;;1.77;;
36247;SDS011;22287;50.824;5.644;2022-11-20T16:08:53;3.92;;;1.75;;
36247;SDS011;22287;50.824;5.644;2022-11-20T16:11:19;2.65;;;1.30;;
36247;SDS011;22287;50.824;5.644;2022-11-20T16:13:47;1.52;;;1.30;;
36247;SDS011;22287;50.824;5.644;2022-11-20T16:16:45;6.57;;;1.88;;
36247;SDS011;22287;50.824;5.644;2022-11-20T16:19:12;4.03;;;1.40;;
36247;SDS011;22287;50.824;5.644;2022-11-20T16:21:40;1.63;;;1.30;;
36247;SDS011;22287;50.824;5.644;2022-11-20T16:24:09;1.80;;;1.15;;
36247;SDS011;22287;50.824;5.644;2022-11-20T16:29:06;2.67;;;1.85;;
36247;SDS011;22287;50.824;5.644;2022-11-20T16:31:33;3.22;;;1.60;;
36247;SDS011;22287;50.824;5.644;2022-11-20T16:34:02;2.35;;;1.50;;
36247;SDS011;22287;50.824;5.644;2022-11-20T16:36:38;2.53;;;1.17;;
36247;SDS011;22287;50.824;5.644;2022-11-20T16:39:06;1.55;;;1.30;;
36247;SDS011;22287;50.824;5.644;2022-11-20T16:41:35;2.03;;;1.20;;
36247;SDS011;22287;50.824;5.644;2022-11-20T16:44:05;2.85;;;1.40;;
36247;SDS011;22287;50.824;5.644;2022-11-20T16:46:34;3.42;;;1.95;;
36247;SDS011;22287;50.824;5.644;2022-11-20T16:49:05;4.28;;;1.85;;
36247;SDS011;22287;50.824;5.644;2022-11-20T16:51:36;5.13;;;1.92;;
36247;SDS011;22287;50.824;5.644;2022-11-20T16:54:07;3.72;;;2.15;;
36247;SDS011;22287;50.824;5.644;2022-11-20T16:56:35;4.03;;;2.13;;
36247;SDS011;22287;50.824;5.644;2022-11-20T16:59:02;3.83;;;2.78;;
36247;SDS011;22287;50.824;5.644;2022-11-20T17:01:30;4.15;;;2.30;;
36247;SDS011;22287;50.824;5.644;2022-11-20T17:04:01;4.03;;;2.53;;
36247;SDS011;22287;50.824;5.644;2022-11-20T17:06:31;4.15;;;1.98;;
36247;SDS011;22287;50.824;5.644;2022-11-20T17:08:59;2.78;;;2.08;;